OINR 
Ramsar Airport
Iran 
ICAOIATAStatus
OINRRZROperational
LatitudeLongitude
36° 54' 35" N50° 40' 46" E
36.90990150.679600
Local Time (DST+5)UTC (GMT+4)
04-25-2014 07:57 am04-25-2014 03:27
Sunrise-SunsetLocalUTC
Begin Civil Twilight05:51 am01:21
Sunrise06:18 am01:48
Sunset07:51 pm15:21
End Civil Twilight08:19 pm15:49

Current Weather

METARObservedFlight Conditions

OINR 250300Z 12004KT 9999 FEW027CB BKN030 16/13 Q1017

Fri, Apr 25, 2014 @ 03:00 UTC(Z)

(27 Minutes ago)

MVFR

(Marginal Visual Flight Rules)

WindVisibilityCloudsConditions
120° at 4 knots (7 kph)
10 km or more
  • Few at 2,700' AGL
  • Broken at 3,000' AGL
  • No significant weather
TemperaturesReadingsPrecipitation
Current Temp16°C (61°F)
Dewpoint13°C (55°F)
Humidity83%
Altimeter30.03"Hg
Sea Level Pressure1017mb
None Recorded

Additional weather within a 92.6km radius of OINR

Location METAR
OINN

75km E (111°)

27 minutes ago
VFR VFR    MVFR MVFR    IFR IFR    LIFR LIFR    Unknown Unknown

Previous 24 hour Weather Graphs

  Loading...

CheckWX.com is intended as a tool to help pilots better visualize weather data.   It is not intended as a substitute for an official weather briefing obtained from a Flight Service Station.
CheckWX.com does not meet the FAA requirements for an official pre-flight weather briefing.   Therefore, it's important that pilots still call and obtain an official FSS pre-flight weather briefing.